createdAt,value
2023-02-14T00:00:47.917Z,10.70
2023-02-14T00:03:14.888Z,10.80
2023-02-14T00:05:41.485Z,10.80
2023-02-14T00:08:08.269Z,10.80
2023-02-14T00:10:34.866Z,10.80
2023-02-14T00:13:01.469Z,10.70
2023-02-14T00:15:28.063Z,10.70
2023-02-14T00:17:59.454Z,10.70
2023-02-14T00:20:27.899Z,10.70
2023-02-14T00:22:54.570Z,10.60
2023-02-14T00:25:21.310Z,10.60
2023-02-14T00:27:47.982Z,10.60
2023-02-14T00:30:14.974Z,10.60
2023-02-14T00:32:42.527Z,10.60
2023-02-14T00:35:10.410Z,10.60
2023-02-14T00:37:39.992Z,10.60
2023-02-14T00:40:07.527Z,10.60
2023-02-14T00:42:34.877Z,10.70
2023-02-14T00:45:01.467Z,10.70
2023-02-14T00:47:28.081Z,10.60
2023-02-14T00:49:54.759Z,10.60
2023-02-14T00:52:21.487Z,10.60
2023-02-14T00:54:48.084Z,10.60
2023-02-14T00:57:14.680Z,10.60
2023-02-14T00:59:41.273Z,10.70
2023-02-14T01:02:08.023Z,10.60
2023-02-14T01:04:34.882Z,10.70
2023-02-14T01:07:01.476Z,10.70
2023-02-14T01:09:28.118Z,10.60
2023-02-14T01:11:54.963Z,10.50
2023-02-14T01:14:21.713Z,10.50
2023-02-14T01:16:49.610Z,10.50
2023-02-14T01:19:16.698Z,10.50
2023-02-14T01:21:44.118Z,10.50
2023-02-14T01:24:12.500Z,10.60
2023-02-14T01:26:41.560Z,10.60
2023-02-14T01:29:09.335Z,10.70
2023-02-14T01:31:36.551Z,10.70
2023-02-14T01:34:04.054Z,10.60
2023-02-14T01:36:36.726Z,10.50
2023-02-14T01:39:11.283Z,10.50
2023-02-14T01:41:38.781Z,10.50
2023-02-14T01:44:14.541Z,10.50
2023-02-14T01:46:42.622Z,10.50
2023-02-14T01:49:35.978Z,10.60
2023-02-14T01:52:07.945Z,10.50
2023-02-14T01:54:37.914Z,10.50
2023-02-14T01:57:09.569Z,10.50
2023-02-14T01:59:41.252Z,10.50
2023-02-14T02:02:08.284Z,10.50
2023-02-14T02:04:40.097Z,10.50
2023-02-14T02:07:11.577Z,10.50
2023-02-14T02:09:46.699Z,10.40
2023-02-14T02:12:13.602Z,10.40
2023-02-14T02:14:40.961Z,10.50
2023-02-14T02:17:20.690Z,10.50
2023-02-14T02:20:30.322Z,10.40
2023-02-14T02:23:23.149Z,10.50
2023-02-14T02:26:16.605Z,10.50
2023-02-14T02:29:09.546Z,10.50
2023-02-14T02:32:09.769Z,10.50
2023-02-14T02:34:55.076Z,10.50
2023-02-14T02:37:47.352Z,10.50
2023-02-14T02:40:47.225Z,10.50
2023-02-14T02:43:41.478Z,10.40
2023-02-14T02:46:41.271Z,10.40
2023-02-14T02:49:52.749Z,10.50
2023-02-14T02:52:45.503Z,10.50
2023-02-14T02:55:53.567Z,10.50
2023-02-14T02:58:22.203Z,10.50
2023-02-14T03:00:51.881Z,10.50
2023-02-14T03:03:43.607Z,10.50
2023-02-14T03:06:10.321Z,10.50
2023-02-14T03:08:37.638Z,10.60
2023-02-14T03:11:05.033Z,10.60
2023-02-14T03:14:09.598Z,10.50
2023-02-14T03:16:56.639Z,10.50
2023-02-14T03:20:13.445Z,10.40
2023-02-14T03:22:48.884Z,10.50
2023-02-14T03:25:41.169Z,10.40
2023-02-14T03:28:30.883Z,10.40
2023-02-14T03:31:17.595Z,10.40
2023-02-14T03:33:48.899Z,10.40
2023-02-14T03:36:30.839Z,10.40
2023-02-14T03:39:27.480Z,10.30
2023-02-14T03:42:06.057Z,10.40
2023-02-14T03:44:36.045Z,10.30
2023-02-14T03:47:07.757Z,10.30
2023-02-14T03:49:39.680Z,10.30
2023-02-14T03:52:09.547Z,10.30
2023-02-14T03:54:37.050Z,10.40
2023-02-14T03:57:24.889Z,10.40
2023-02-14T03:59:52.345Z,10.40
2023-02-14T04:02:29.005Z,10.40
2023-02-14T04:04:58.113Z,10.40
2023-02-14T04:07:25.480Z,10.40
2023-02-14T04:09:52.491Z,10.30
2023-02-14T04:12:29.317Z,10.30
2023-02-14T04:15:02.546Z,10.30
2023-02-14T04:17:48.097Z,10.30
2023-02-14T04:20:14.705Z,10.30
2023-02-14T04:22:41.309Z,10.30
2023-02-14T04:25:07.928Z,10.40
2023-02-14T04:27:34.577Z,10.40
2023-02-14T04:30:01.217Z,10.50
2023-02-14T04:32:27.885Z,10.50
2023-02-14T04:34:54.548Z,10.40
2023-02-14T04:37:21.208Z,10.40
2023-02-14T04:39:48.133Z,10.40
2023-02-14T04:42:15.117Z,10.40
2023-02-14T04:44:41.949Z,10.40
2023-02-14T04:47:09.088Z,10.40
2023-02-14T04:49:36.375Z,10.40
2023-02-14T04:52:03.927Z,10.40
2023-02-14T04:54:30.650Z,10.40
2023-02-14T04:56:57.391Z,10.40
2023-02-14T04:59:25.065Z,10.40
2023-02-14T05:01:52.897Z,10.30
2023-02-14T05:04:19.528Z,10.30
2023-02-14T05:06:46.130Z,10.40
2023-02-14T05:09:12.847Z,10.40
2023-02-14T05:11:39.511Z,10.40
2023-02-14T05:14:06.119Z,10.40
2023-02-14T05:16:32.713Z,10.40
2023-02-14T05:18:59.423Z,10.40
2023-02-14T05:21:26.189Z,10.50
2023-02-14T05:23:52.772Z,10.40
2023-02-14T05:26:19.414Z,10.40
2023-02-14T05:28:46.018Z,10.40
2023-02-14T05:31:12.687Z,10.40
2023-02-14T05:33:39.366Z,10.40
2023-02-14T05:36:06.474Z,10.40
2023-02-14T05:38:34.771Z,10.40
2023-02-14T05:41:02.270Z,10.40
2023-02-14T05:43:30.289Z,10.40
2023-02-14T05:45:57.785Z,10.40
2023-02-14T05:48:24.704Z,10.40
2023-02-14T05:50:51.396Z,10.40
2023-02-14T05:53:17.996Z,10.40
2023-02-14T05:55:44.675Z,10.40
2023-02-14T05:58:12.467Z,10.40
2023-02-14T06:00:41.428Z,10.40
2023-02-14T06:03:08.533Z,10.40
2023-02-14T06:05:35.159Z,10.30
2023-02-14T06:08:01.838Z,10.30
2023-02-14T06:10:29.033Z,10.30
2023-02-14T06:12:55.645Z,10.40
2023-02-14T06:15:22.802Z,10.40
2023-02-14T06:17:57.296Z,10.50
2023-02-14T06:20:24.963Z,10.50
2023-02-14T06:22:51.825Z,10.40
2023-02-14T06:25:19.042Z,10.40
2023-02-14T06:27:48.823Z,10.40
2023-02-14T06:30:17.049Z,10.30
2023-02-14T06:32:43.736Z,10.30
2023-02-14T06:35:10.377Z,10.30
2023-02-14T06:37:38.574Z,10.30
2023-02-14T06:40:05.842Z,10.40
2023-02-14T06:42:32.462Z,10.40
2023-02-14T06:44:59.079Z,10.50
2023-02-14T06:47:25.732Z,10.50
2023-02-14T06:49:52.317Z,10.40
2023-02-14T06:52:18.921Z,10.40
2023-02-14T06:54:45.518Z,10.40
2023-02-14T06:57:12.111Z,10.40
2023-02-14T06:59:38.703Z,10.40
2023-02-14T07:02:05.326Z,10.30
2023-02-14T07:04:31.889Z,10.40
2023-02-14T07:06:58.577Z,10.40
2023-02-14T07:09:25.168Z,10.40
2023-02-14T07:11:51.778Z,10.40
2023-02-14T07:14:18.357Z,10.40
2023-02-14T07:16:45.097Z,10.40
2023-02-14T07:19:11.737Z,10.40
2023-02-14T07:21:38.306Z,10.40
2023-02-14T07:24:04.996Z,10.50
2023-02-14T07:26:31.601Z,10.40
2023-02-14T07:28:58.222Z,10.50
2023-02-14T07:31:24.935Z,10.50
2023-02-14T07:33:51.873Z,10.50
2023-02-14T07:36:18.748Z,10.50
2023-02-14T07:38:45.397Z,10.50
2023-02-14T07:41:11.995Z,10.50
2023-02-14T07:43:39.579Z,10.50
2023-02-14T07:46:06.816Z,10.50
2023-02-14T07:48:34.493Z,10.50
2023-02-14T07:51:02.125Z,10.50
2023-02-14T07:53:29.258Z,10.50
2023-02-14T07:55:55.890Z,10.50
2023-02-14T07:58:23.006Z,10.50
2023-02-14T08:00:51.025Z,10.50
2023-02-14T08:03:18.008Z,10.50
2023-02-14T08:05:44.739Z,10.50
2023-02-14T08:08:11.323Z,10.60
2023-02-14T08:10:38.058Z,10.60
2023-02-14T08:13:04.714Z,10.60
2023-02-14T08:15:52.419Z,10.60
2023-02-14T08:18:20.886Z,10.60
2023-02-14T08:20:51.410Z,10.60
2023-02-14T08:23:19.430Z,10.70
2023-02-14T08:25:47.647Z,10.70
2023-02-14T08:28:14.969Z,10.70
2023-02-14T08:30:43.509Z,10.80
2023-02-14T08:33:10.349Z,10.80
2023-02-14T08:35:37.668Z,10.80
2023-02-14T08:38:04.722Z,10.80
2023-02-14T08:40:31.659Z,10.80
2023-02-14T08:42:58.302Z,10.70
2023-02-14T08:45:24.941Z,10.80
2023-02-14T08:47:51.507Z,10.80
2023-02-14T08:50:19.246Z,10.70
2023-02-14T08:52:46.296Z,10.70
2023-02-14T08:55:13.880Z,10.80
2023-02-14T08:57:40.840Z,10.80
2023-02-14T09:00:09.841Z,10.80
2023-02-14T09:02:36.714Z,10.80
2023-02-14T09:05:03.516Z,10.90
2023-02-14T09:07:30.340Z,10.90
2023-02-14T09:09:56.927Z,10.90
2023-02-14T09:12:23.536Z,10.90
2023-02-14T09:14:50.139Z,10.90
2023-02-14T09:17:17.058Z,10.90
2023-02-14T09:19:43.709Z,11.00
2023-02-14T09:22:11.871Z,11.10
2023-02-14T09:24:39.773Z,11.00
2023-02-14T09:27:06.408Z,11.00
2023-02-14T09:29:33.636Z,11.00
2023-02-14T09:32:01.648Z,11.10
2023-02-14T09:34:28.883Z,11.00
2023-02-14T09:37:14.132Z,11.00
2023-02-14T09:39:40.878Z,11.10
2023-02-14T09:42:15.028Z,11.20
2023-02-14T09:44:59.271Z,11.30
2023-02-14T09:47:40.577Z,11.30
2023-02-14T09:50:34.331Z,11.40
2023-02-14T09:53:13.087Z,11.40
2023-02-14T09:55:50.745Z,11.40
2023-02-14T09:58:23.072Z,11.50
2023-02-14T10:01:05.019Z,11.40
2023-02-14T10:03:52.604Z,11.30
2023-02-14T10:06:34.085Z,11.40
2023-02-14T10:09:31.747Z,11.30
2023-02-14T10:12:00.998Z,11.40
2023-02-14T10:14:31.847Z,11.50
2023-02-14T10:17:12.887Z,11.50
2023-02-14T10:19:52.927Z,11.60
2023-02-14T10:22:26.093Z,11.60
2023-02-14T10:25:01.669Z,11.70
2023-02-14T10:27:36.085Z,11.70
2023-02-14T10:30:16.309Z,11.70
2023-02-14T10:32:51.820Z,11.70
2023-02-14T10:35:18.360Z,11.70
2023-02-14T10:38:05.252Z,11.70
2023-02-14T10:41:00.112Z,11.80
2023-02-14T10:43:56.774Z,11.70
2023-02-14T10:46:51.881Z,11.50
2023-02-14T10:49:40.358Z,11.60
2023-02-14T10:52:37.542Z,11.70
2023-02-14T10:55:33.110Z,11.70
2023-02-14T10:58:04.109Z,11.80
2023-02-14T11:00:34.657Z,11.90
2023-02-14T11:03:05.773Z,12.00
2023-02-14T11:05:46.191Z,12.00
2023-02-14T11:08:25.985Z,11.90
2023-02-14T11:10:55.862Z,12.00
2023-02-14T11:13:37.143Z,12.10
2023-02-14T11:16:10.391Z,12.10
2023-02-14T11:18:39.897Z,12.10
2023-02-14T11:21:17.806Z,12.00
2023-02-14T11:23:49.544Z,11.90
2023-02-14T11:26:30.090Z,12.00
2023-02-14T11:29:00.944Z,12.10
2023-02-14T11:31:36.538Z,12.10
2023-02-14T11:34:06.702Z,12.30
2023-02-14T11:36:41.878Z,12.40
2023-02-14T11:39:23.619Z,12.50
2023-02-14T11:41:53.318Z,12.60
2023-02-14T11:44:22.994Z,12.60
2023-02-14T11:46:54.536Z,12.60
2023-02-14T11:49:31.946Z,12.60
2023-02-14T11:52:10.281Z,12.80
2023-02-14T11:54:40.434Z,12.90
2023-02-14T11:57:38.333Z,12.90
2023-02-14T12:00:15.949Z,12.80
2023-02-14T12:02:50.481Z,13.00
2023-02-14T12:05:21.828Z,13.10
2023-02-14T12:07:52.225Z,13.10
2023-02-14T12:10:26.247Z,13.10
2023-02-14T12:13:03.381Z,13.20
2023-02-14T12:15:50.133Z,13.20
2023-02-14T12:18:29.285Z,13.20
2023-02-14T12:21:18.471Z,13.10
2023-02-14T12:24:05.728Z,13.10
2023-02-14T12:26:38.256Z,13.20
2023-02-14T12:29:27.959Z,13.30
2023-02-14T12:31:58.972Z,13.40
2023-02-14T12:34:25.617Z,13.50
2023-02-14T12:37:40.543Z,13.60
2023-02-14T12:40:56.066Z,13.70
2023-02-14T12:43:40.988Z,13.70
2023-02-14T12:46:32.448Z,13.70
2023-02-14T12:49:13.483Z,13.70
2023-02-14T12:52:04.732Z,13.70
2023-02-14T12:54:46.777Z,13.70
2023-02-14T12:57:43.337Z,13.70
2023-02-14T13:00:12.615Z,13.70
2023-02-14T13:02:58.440Z,13.70
2023-02-14T13:05:58.941Z,13.70
2023-02-14T13:08:37.551Z,13.70
2023-02-14T13:11:34.610Z,13.70
2023-02-14T13:14:45.398Z,13.70
2023-02-14T13:17:35.866Z,13.90
2023-02-14T13:20:25.320Z,13.90
2023-02-14T13:22:54.382Z,13.90
2023-02-14T13:25:31.641Z,13.80
2023-02-14T13:28:01.338Z,13.90
2023-02-14T13:30:32.273Z,14.10
2023-02-14T13:33:06.354Z,14.20
2023-02-14T13:35:34.283Z,14.10
2023-02-14T13:38:04.842Z,14.10
2023-02-14T13:40:32.421Z,14.00
2023-02-14T13:43:01.182Z,14.00
2023-02-14T13:45:39.755Z,13.90
2023-02-14T13:48:12.842Z,14.10
2023-02-14T13:50:50.214Z,14.30
2023-02-14T13:53:31.593Z,14.40
2023-02-14T13:55:58.712Z,14.30
2023-02-14T13:58:25.907Z,14.20
2023-02-14T14:00:53.467Z,14.20
2023-02-14T14:03:29.112Z,14.20
2023-02-14T14:06:12.505Z,14.20
2023-02-14T14:08:42.530Z,14.20
2023-02-14T14:11:21.070Z,14.30
2023-02-14T14:14:23.478Z,14.20
2023-02-14T14:16:58.638Z,14.10
2023-02-14T14:19:25.222Z,14.00
2023-02-14T14:22:04.397Z,13.90
2023-02-14T14:24:36.545Z,14.00
2023-02-14T14:27:19.822Z,14.00
2023-02-14T14:29:58.726Z,14.00
2023-02-14T14:32:27.063Z,13.90
2023-02-14T14:34:59.415Z,14.00
2023-02-14T14:37:34.437Z,14.00
2023-02-14T14:40:05.290Z,14.00
2023-02-14T14:42:39.865Z,13.90
2023-02-14T14:45:21.676Z,13.90
2023-02-14T14:47:48.919Z,13.90
2023-02-14T14:50:28.042Z,13.90
2023-02-14T14:53:02.844Z,13.80
2023-02-14T14:55:31.966Z,13.80
2023-02-14T14:58:04.022Z,13.80
2023-02-14T15:00:36.498Z,13.70
2023-02-14T15:03:11.862Z,13.70
2023-02-14T15:05:46.949Z,13.70
2023-02-14T15:08:32.730Z,13.70
2023-02-14T15:11:39.874Z,13.70
2023-02-14T15:14:16.969Z,13.70
2023-02-14T15:16:50.545Z,13.70
2023-02-14T15:19:34.230Z,13.70
2023-02-14T15:22:04.477Z,13.60
2023-02-14T15:24:33.353Z,13.60
2023-02-14T15:27:00.247Z,13.60
2023-02-14T15:29:30.551Z,13.60
2023-02-14T15:32:03.392Z,13.60
2023-02-14T15:34:35.935Z,13.60
2023-02-14T15:37:06.247Z,13.50
2023-02-14T15:39:37.507Z,13.50
2023-02-14T15:42:06.003Z,13.50
2023-02-14T15:44:32.862Z,13.50
2023-02-14T15:47:03.571Z,13.50
2023-02-14T15:49:36.960Z,13.50
2023-02-14T15:52:05.565Z,13.50
2023-02-14T15:54:42.797Z,13.50
2023-02-14T15:57:24.568Z,13.50
2023-02-14T15:59:51.328Z,13.40
2023-02-14T16:02:38.856Z,13.50
2023-02-14T16:05:17.627Z,13.40
2023-02-14T16:07:57.429Z,13.40
2023-02-14T16:10:28.294Z,13.40
2023-02-14T16:13:14.696Z,13.40
2023-02-14T16:15:57.593Z,13.40
2023-02-14T16:18:41.930Z,13.40
2023-02-14T16:21:19.551Z,13.40
2023-02-14T16:24:07.191Z,13.30
2023-02-14T16:26:35.784Z,13.30
2023-02-14T16:29:03.769Z,13.30
2023-02-14T16:31:31.064Z,13.30
2023-02-14T16:33:57.982Z,13.40
2023-02-14T16:36:30.237Z,13.30
2023-02-14T16:38:57.545Z,13.30
2023-02-14T16:41:27.263Z,13.30
2023-02-14T16:43:54.840Z,13.30
2023-02-14T16:46:28.490Z,13.30
2023-02-14T16:48:55.688Z,13.30
2023-02-14T16:51:25.529Z,13.30
2023-02-14T16:53:53.641Z,13.20
2023-02-14T16:56:26.377Z,13.20
2023-02-14T16:58:53.061Z,13.20
2023-02-14T17:01:19.723Z,13.20
2023-02-14T17:03:46.349Z,13.20
2023-02-14T17:06:15.963Z,13.10
2023-02-14T17:08:43.534Z,13.10
2023-02-14T17:11:10.699Z,13.10
2023-02-14T17:13:41.072Z,13.10
2023-02-14T17:16:11.647Z,13.00
2023-02-14T17:18:39.172Z,13.00
2023-02-14T17:21:06.246Z,13.00
2023-02-14T17:23:32.861Z,13.00
2023-02-14T17:25:59.531Z,13.00
2023-02-14T17:28:26.536Z,13.00
2023-02-14T17:30:54.042Z,13.00
2023-02-14T17:33:21.257Z,13.00
2023-02-14T17:35:48.388Z,13.00
2023-02-14T17:38:15.029Z,13.00
2023-02-14T17:40:41.644Z,13.00
2023-02-14T17:43:08.509Z,13.00
2023-02-14T17:45:35.327Z,13.00
2023-02-14T17:48:02.555Z,12.90
2023-02-14T17:50:29.674Z,12.90
2023-02-14T17:52:56.916Z,12.90
2023-02-14T17:55:23.948Z,12.90
2023-02-14T17:57:52.494Z,12.80
2023-02-14T18:00:23.771Z,12.80
2023-02-14T18:02:50.495Z,12.80
2023-02-14T18:05:17.162Z,12.70
2023-02-14T18:07:43.928Z,12.80
2023-02-14T18:10:10.894Z,12.70
2023-02-14T18:12:37.526Z,12.70
2023-02-14T18:15:05.570Z,12.70
2023-02-14T18:17:32.233Z,12.70
2023-02-14T18:19:58.896Z,12.70
2023-02-14T18:22:25.535Z,12.60
2023-02-14T18:24:52.163Z,12.60
2023-02-14T18:27:18.777Z,12.60
2023-02-14T18:29:45.423Z,12.60
2023-02-14T18:32:12.060Z,12.50
2023-02-14T18:34:38.829Z,12.50
2023-02-14T18:37:06.021Z,12.50
2023-02-14T18:39:32.929Z,12.50
2023-02-14T18:42:00.853Z,12.40
2023-02-14T18:44:28.790Z,12.40
2023-02-14T18:46:55.488Z,12.40
2023-02-14T18:49:22.287Z,12.30
2023-02-14T18:51:49.115Z,12.40
2023-02-14T18:54:15.932Z,12.30
2023-02-14T18:56:42.872Z,12.30
2023-02-14T18:59:10.734Z,12.30
2023-02-14T19:01:42.098Z,12.30
2023-02-14T19:04:12.027Z,12.30
2023-02-14T19:06:40.660Z,12.20
2023-02-14T19:09:09.731Z,12.20
2023-02-14T19:11:36.881Z,12.20
2023-02-14T19:14:09.293Z,12.20
2023-02-14T19:16:39.154Z,12.20
2023-02-14T19:19:05.833Z,12.20
2023-02-14T19:21:34.706Z,12.20
2023-02-14T19:24:03.083Z,12.10
2023-02-14T19:26:36.989Z,12.10
2023-02-14T19:29:07.208Z,12.10
2023-02-14T19:31:40.075Z,12.00
2023-02-14T19:34:07.964Z,12.00
2023-02-14T19:36:38.820Z,12.10
2023-02-14T19:39:05.985Z,12.00
2023-02-14T19:41:34.444Z,12.00
2023-02-14T19:44:04.508Z,12.00
2023-02-14T19:46:31.953Z,12.00
2023-02-14T19:48:59.467Z,11.90
2023-02-14T19:51:29.668Z,11.90
2023-02-14T19:53:58.362Z,11.90
2023-02-14T19:56:27.419Z,11.90
2023-02-14T19:58:55.896Z,11.90
2023-02-14T20:01:31.302Z,11.90
2023-02-14T20:03:58.076Z,11.90
2023-02-14T20:06:25.990Z,11.90
2023-02-14T20:08:53.434Z,11.80
2023-02-14T20:11:32.617Z,11.80
2023-02-14T20:14:00.619Z,11.80
2023-02-14T20:16:29.800Z,11.80
2023-02-14T20:18:57.309Z,11.80
2023-02-14T20:21:28.034Z,11.80
2023-02-14T20:24:00.933Z,11.80
2023-02-14T20:26:32.421Z,11.80
2023-02-14T20:29:00.543Z,11.80
2023-02-14T20:31:27.368Z,11.70
2023-02-14T20:33:55.687Z,11.70
2023-02-14T20:36:22.452Z,11.70
2023-02-14T20:38:55.296Z,11.70
2023-02-14T20:41:22.462Z,11.70
2023-02-14T20:43:49.047Z,11.60
2023-02-14T20:46:15.674Z,11.60
2023-02-14T20:48:42.253Z,11.60
2023-02-14T20:51:13.864Z,11.70
2023-02-14T20:53:42.252Z,11.60
2023-02-14T20:56:09.337Z,11.60
2023-02-14T20:58:37.686Z,11.60
2023-02-14T21:01:18.864Z,11.60
2023-02-14T21:03:47.774Z,11.50
2023-02-14T21:06:15.050Z,11.50
2023-02-14T21:08:42.944Z,11.50
2023-02-14T21:11:12.414Z,11.50
2023-02-14T21:13:39.774Z,11.50
2023-02-14T21:16:09.226Z,11.50
2023-02-14T21:18:37.600Z,11.50
2023-02-14T21:21:18.337Z,11.50
2023-02-14T21:23:44.990Z,11.60
2023-02-14T21:26:11.607Z,11.50
2023-02-14T21:28:38.216Z,11.50
2023-02-14T21:31:07.915Z,11.50
2023-02-14T21:33:35.554Z,11.40
2023-02-14T21:36:10.719Z,11.40
2023-02-14T21:38:37.754Z,11.40
2023-02-14T21:41:06.840Z,11.40
2023-02-14T21:43:35.275Z,11.40
2023-02-14T21:46:29.232Z,11.30
2023-02-14T21:49:15.793Z,11.30
2023-02-14T21:51:43.001Z,11.30
2023-02-14T21:54:09.744Z,11.30
2023-02-14T21:56:37.639Z,11.30
2023-02-14T21:59:04.433Z,11.30
2023-02-14T22:01:33.506Z,11.30
2023-02-14T22:04:01.144Z,11.30
2023-02-14T22:06:28.509Z,11.30
2023-02-14T22:08:56.897Z,11.20
2023-02-14T22:11:25.205Z,11.20
2023-02-14T22:13:51.875Z,11.20
2023-02-14T22:16:20.299Z,11.20
2023-02-14T22:18:47.867Z,11.10
2023-02-14T22:21:21.176Z,11.10
2023-02-14T22:23:48.324Z,11.10
2023-02-14T22:26:23.806Z,11.00
2023-02-14T22:28:53.750Z,10.90
2023-02-14T22:31:20.675Z,10.90
2023-02-14T22:33:48.682Z,10.80
2023-02-14T22:36:15.722Z,10.80
2023-02-14T22:38:42.768Z,10.80
2023-02-14T22:41:15.609Z,10.80
2023-02-14T22:43:42.631Z,10.80
2023-02-14T22:46:14.989Z,10.80
2023-02-14T22:48:41.648Z,10.80
2023-02-14T22:51:18.095Z,10.80
2023-02-14T22:53:44.896Z,10.80
2023-02-14T22:56:17.087Z,10.80
2023-02-14T22:58:44.514Z,10.80
2023-02-14T23:01:20.009Z,10.80
2023-02-14T23:03:47.689Z,10.80
2023-02-14T23:06:14.818Z,10.80
2023-02-14T23:08:43.367Z,10.90
2023-02-14T23:11:15.729Z,10.80
2023-02-14T23:14:01.474Z,10.80
2023-02-14T23:16:46.826Z,10.80
2023-02-14T23:19:37.172Z,10.90
2023-02-14T23:22:07.172Z,10.80
2023-02-14T23:24:33.853Z,10.80
2023-02-14T23:27:00.974Z,10.80
2023-02-14T23:29:27.852Z,10.70
2023-02-14T23:31:54.898Z,10.70
2023-02-14T23:34:25.908Z,10.70
2023-02-14T23:36:52.805Z,10.80
2023-02-14T23:39:19.447Z,10.80
2023-02-14T23:41:49.112Z,10.80
2023-02-14T23:44:30.199Z,10.80
2023-02-14T23:46:58.593Z,10.80
2023-02-14T23:49:26.099Z,10.80
2023-02-14T23:51:54.347Z,10.80
2023-02-14T23:54:22.516Z,10.80
2023-02-14T23:56:50.030Z,10.90
2023-02-14T23:59:16.948Z,10.90
